Бикин

Карта отелей и гостиниц, располагающихся рядом с аэропортом Бикин :



Бикин Хабаровский край 46° 48' 24.2388" N, 134° 17' 14.0388" E

Бикин Хабаровский край 46° 48' 24.2388" N, 134° 17' 14.0388" E
Код аэродрома ИКАО: 
HD6V
Код аэродрома RU: 
ХД6Ж
Координаты: 
N46.80673° E134.28723°
Превышение над уровнем моря : 
105
Основная полоса: 
18/36
Курс магнитный: 
176,8/356,8
Длина основной ВПП: 
15
Ширина основной ВПП: 
15
Покрытие основной ВПП: 
Твёрдое
Тип: 
Вертодром
Освещение ВПП: 
Нет
Класс аэродрома: 
Статус: 
Действующий
Принадлежность: 
ГА
Сайт: 
E-mail аэродрома: 
Страна: 
Россия
Регион: 
Хабаровский край
Город: 
Дополнительная информация: 
Оператор: нет данных.

Найти трансфер

С помощью этой формы Вы можете найти трансфер из аэропорта Бикин в город, аэропорт или вокзал:

Карта места

Javascript is required to view this map.

Погода в аэропортах:

Авиационная погода в Гомеле

Регион: 
Погода METAR: 
UMGG 210400Z 15003MPS 5000 BR NSC M01/M02 Q1021 R10/CLRD// NOSIG
Время наблюдения: 
2020-02-21T04:00:00Z
Температура C: 
-1.0
Точка росы: 
-2.0
Направление ветра: 
150
Скорость ветра: 
6
Метеорологическая видимость: 
3.11
Явления погоды: 
BR
Условия полета: 
MVFR
Аэропорт подробнее: 

Авиационная погода в Богашево

Регион: 
Погода METAR: 
UNTT 210400Z 23007MPS 5000 -SHSN SCT013 BKN020CB M05/M06 Q1017 R21/490337 NOSIG RMK QFE747
Время наблюдения: 
2020-02-21T04:00:00Z
Температура C: 
-5.0
Точка росы: 
-6.0
Направление ветра: 
230
Скорость ветра: 
14
Метеорологическая видимость: 
3.11
Явления погоды: 
-SHSN
Условия полета: 
MVFR
Аэропорт подробнее: 

Авиационная погода в Емельяново

Регион: 
Погода METAR: 
UNKL 210400Z 22003MPS 170V240 4300 -SN SCT047 M02/M05 Q1018 R29/490235 NOSIG RMK QFE738
Время наблюдения: 
2020-02-21T04:00:00Z
Температура C: 
-2.0
Точка росы: 
-5.0
Направление ветра: 
220
Скорость ветра: 
6
Метеорологическая видимость: 
2.67
Явления погоды: 
-SN
Условия полета: 
IFR
Аэропорт подробнее: 

Авиационная погода в Дашогузе

Регион: 
Погода METAR: 
UTAT 210400Z 21004KT 9999 -RA OVC100 05/01 Q1012 R08/19//60 NOSIG
Время наблюдения: 
2020-02-21T04:00:00Z
Температура C: 
5.0
Точка росы: 
1.0
Направление ветра: 
210
Скорость ветра: 
4
Метеорологическая видимость: 
6.21
Явления погоды: 
-RA
Условия полета: 
VFR